Time;durP1;ratioP1;P1;durP2;ratioP2;P2;SDS_P1;SDS_P2;PMS_P1;PMS_P2;Temp;Humidity;BMP_temperature;BMP_pressure;BME280_temperature;BME280_humidity;BME280_pressure;Samples;Min_cycle;Max_cycle;Signal;HPM_P1;HPM_P2
2024/05/06 00:01:50;;;;;;;11.07;10.57;;;;;;;;;;5405570;26;20004;-70
2024/05/06 00:04:15;;;;;;;10.98;10.48;;;;;;;;;;5381140;26;20008;-70
2024/05/06 00:06:40;;;;;;;10.60;10.10;;;;;;;;;;5380929;26;20449;-72
2024/05/06 00:09:09;;;;;;;10.88;10.38;;;;;;;;;;5315601;26;19997;-71
2024/05/06 00:11:34;;;;;;;10.95;10.45;;;;;;;;;;5314121;26;20023;-71
2024/05/06 00:14:00;;;;;;;11.20;10.70;;;;;;;;;;5359195;26;20457;-72
2024/05/06 00:16:25;;;;;;;10.90;10.40;;;;;;;;;;5375869;26;20015;-72
2024/05/06 00:18:51;;;;;;;11.25;10.75;;;;;;;;;;5361815;26;20012;-70
2024/05/06 00:21:16;;;;;;;11.10;10.60;;;;;;;;;;5367869;26;20072;-71
2024/05/06 00:23:42;;;;;;;10.82;10.32;;;;;;;;;;5337363;26;20004;-71
2024/05/06 00:26:07;;;;;;;10.88;10.38;;;;;;;;;;5348507;26;20527;-70
2024/05/06 00:28:32;;;;;;;11.00;10.50;;;;;;;;;;5354849;26;20044;-70
2024/05/06 00:30:58;;;;;;;10.77;10.27;;;;;;;;;;5374379;26;20012;-70
2024/05/06 00:33:23;;;;;;;11.23;10.73;;;;;;;;;;5336851;26;20453;-70
2024/05/06 00:35:49;;;;;;;10.82;10.32;;;;;;;;;;5359199;26;20464;-72
2024/05/06 00:38:14;;;;;;;12.18;11.57;;;;;;;;;;5328042;26;19998;-69
2024/05/06 00:40:40;;;;;;;10.85;10.35;;;;;;;;;;5366304;26;20005;-70
2024/05/06 00:43:05;;;;;;;11.10;10.60;;;;;;;;;;5362085;26;19997;-71
2024/05/06 00:45:31;;;;;;;10.93;10.43;;;;;;;;;;5352020;26;20008;-70
2024/05/06 00:47:57;;;;;;;11.10;10.60;;;;;;;;;;5326942;26;20456;-69
2024/05/06 00:50:23;;;;;;;11.43;10.93;;;;;;;;;;5319106;26;20028;-71
2024/05/06 00:52:49;;;;;;;11.30;10.80;;;;;;;;;;5364997;26;20730;-71
2024/05/06 00:55:14;;;;;;;11.10;10.60;;;;;;;;;;5336529;26;20395;-71
2024/05/06 00:57:40;;;;;;;10.98;10.48;;;;;;;;;;5319103;26;20015;-70
2024/05/06 01:00:08;;;;;;;10.73;10.23;;;;;;;;;;5379598;26;20000;-71
2024/05/06 01:02:34;;;;;;;10.65;10.15;;;;;;;;;;5379635;26;20012;-71
2024/05/06 01:05:00;;;;;;;10.85;10.35;;;;;;;;;;5386700;26;19999;-70
2024/05/06 01:07:25;;;;;;;10.98;10.48;;;;;;;;;;5409254;26;20014;-71
2024/05/06 01:09:51;;;;;;;10.90;10.40;;;;;;;;;;5402521;26;20464;-70
2024/05/06 01:12:16;;;;;;;11.00;10.50;;;;;;;;;;5398537;26;20000;-70
2024/05/06 01:14:42;;;;;;;10.80;10.30;;;;;;;;;;5387121;26;20018;-70
2024/05/06 01:17:07;;;;;;;11.10;10.60;;;;;;;;;;5400266;26;20352;-70
2024/05/06 01:19:33;;;;;;;10.70;10.20;;;;;;;;;;5401287;26;20004;-70
2024/05/06 01:21:59;;;;;;;10.98;10.48;;;;;;;;;;5360453;26;20000;-71
2024/05/06 01:24:25;;;;;;;11.35;10.85;;;;;;;;;;5404599;26;20004;-71
2024/05/06 01:26:50;;;;;;;11.45;10.95;;;;;;;;;;5413712;26;20007;-70
2024/05/06 01:29:16;;;;;;;10.75;10.25;;;;;;;;;;5405863;26;20003;-70
2024/05/06 01:31:41;;;;;;;10.70;10.20;;;;;;;;;;5402404;26;20008;-71
2024/05/06 01:34:07;;;;;;;10.43;9.93;;;;;;;;;;5391738;26;20011;-71
2024/05/06 01:36:32;;;;;;;10.77;10.27;;;;;;;;;;5404056;26;20444;-70
2024/05/06 01:38:57;;;;;;;10.82;10.32;;;;;;;;;;5408000;26;20414;-70
2024/05/06 01:41:23;;;;;;;11.30;10.80;;;;;;;;;;5407059;26;20015;-70
2024/05/06 01:43:48;;;;;;;11.00;10.50;;;;;;;;;;5395012;26;19991;-70
2024/05/06 01:46:14;;;;;;;10.90;10.40;;;;;;;;;;5395313;26;20012;-70
2024/05/06 01:48:39;;;;;;;10.98;10.48;;;;;;;;;;5375386;26;20000;-70
2024/05/06 01:51:04;;;;;;;10.73;10.23;;;;;;;;;;5389247;26;20078;-71
2024/05/06 01:53:30;;;;;;;10.98;10.48;;;;;;;;;;5409228;26;20364;-70
2024/05/06 01:55:55;;;;;;;10.90;10.40;;;;;;;;;;5412215;26;20010;-71
2024/05/06 01:58:21;;;;;;;10.88;10.38;;;;;;;;;;5382102;26;20000;-70
2024/05/06 02:00:46;;;;;;;10.55;10.05;;;;;;;;;;5411745;26;20036;-70
2024/05/06 02:03:12;;;;;;;10.95;10.45;;;;;;;;;;5391321;26;20054;-71
2024/05/06 02:05:37;;;;;;;10.82;10.32;;;;;;;;;;5390595;26;20007;-70
2024/05/06 02:08:02;;;;;;;10.95;10.45;;;;;;;;;;5409364;26;20377;-70
2024/05/06 02:10:28;;;;;;;10.93;10.43;;;;;;;;;;5396938;26;20073;-72
2024/05/06 02:12:53;;;;;;;11.10;10.60;;;;;;;;;;5380667;26;19992;-71
2024/05/06 02:15:19;;;;;;;10.90;10.40;;;;;;;;;;5386012;26;20008;-71
2024/05/06 02:17:44;;;;;;;11.20;10.70;;;;;;;;;;5409352;26;20076;-70
2024/05/06 02:20:09;;;;;;;10.88;10.38;;;;;;;;;;5410629;26;20077;-71
2024/05/06 02:22:35;;;;;;;10.80;10.30;;;;;;;;;;5388647;26;20000;-71
2024/05/06 02:25:00;;;;;;;10.90;10.40;;;;;;;;;;5404692;26;20006;-71
2024/05/06 02:27:26;;;;;;;10.70;10.20;;;;;;;;;;5403237;26;20009;-70
2024/05/06 02:29:51;;;;;;;10.50;10.00;;;;;;;;;;5379035;26;20324;-70
2024/05/06 02:32:17;;;;;;;10.98;10.48;;;;;;;;;;5400556;26;20156;-70
2024/05/06 02:34:42;;;;;;;10.68;10.18;;;;;;;;;;5361718;26;20712;-70
2024/05/06 02:37:07;;;;;;;10.68;10.18;;;;;;;;;;5359469;26;20500;-70
2024/05/06 02:39:33;;;;;;;10.75;10.25;;;;;;;;;;5387289;26;20000;-70
2024/05/06 02:41:58;;;;;;;11.10;10.60;;;;;;;;;;5369384;26;20007;-70
2024/05/06 02:44:24;;;;;;;11.23;10.73;;;;;;;;;;5416582;26;20353;-70
2024/05/06 02:46:49;;;;;;;10.73;10.23;;;;;;;;;;5395822;26;19996;-70
2024/05/06 02:49:15;;;;;;;10.40;9.90;;;;;;;;;;5368271;26;20410;-70
2024/05/06 02:51:40;;;;;;;9.98;9.57;;;;;;;;;;5384910;26;20007;-70
2024/05/06 02:54:05;;;;;;;10.52;10.02;;;;;;;;;;5384981;26;20505;-70
2024/05/06 02:56:31;;;;;;;10.30;9.80;;;;;;;;;;5381334;26;20004;-70
2024/05/06 02:58:56;;;;;;;10.80;10.30;;;;;;;;;;5413299;26;20050;-71
2024/05/06 03:01:22;;;;;;;10.60;10.10;;;;;;;;;;5413063;26;20468;-70
2024/05/06 03:03:47;;;;;;;10.75;10.25;;;;;;;;;;5382626;26;20039;-71
2024/05/06 03:06:13;;;;;;;10.73;10.23;;;;;;;;;;5352047;26;20015;-70
2024/05/06 03:08:40;;;;;;;10.95;10.45;;;;;;;;;;5401812;26;20089;-70
2024/05/06 03:11:05;;;;;;;10.50;10.00;;;;;;;;;;5405670;26;20261;-71
2024/05/06 03:13:31;;;;;;;10.60;10.10;;;;;;;;;;5382161;26;19997;-71
2024/05/06 03:15:56;;;;;;;10.70;10.20;;;;;;;;;;5390164;26;20458;-71
2024/05/06 03:18:22;;;;;;;10.57;10.07;;;;;;;;;;5375985;26;20000;-71
2024/05/06 03:20:47;;;;;;;10.80;10.30;;;;;;;;;;5391778;26;19995;-71
2024/05/06 03:23:12;;;;;;;10.85;10.35;;;;;;;;;;5392429;26;20419;-71
2024/05/06 03:25:38;;;;;;;10.90;10.40;;;;;;;;;;5385361;26;20000;-71
2024/05/06 03:28:03;;;;;;;10.93;10.43;;;;;;;;;;5369319;26;20425;-71
2024/05/06 03:30:29;;;;;;;11.27;10.77;;;;;;;;;;5382662;26;20008;-71
2024/05/06 03:32:54;;;;;;;11.30;10.80;;;;;;;;;;5371356;26;20464;-71
2024/05/06 03:35:20;;;;;;;11.45;10.95;;;;;;;;;;5356640;26;20013;-71
2024/05/06 03:37:46;;;;;;;11.30;10.80;;;;;;;;;;5396794;26;19996;-71
2024/05/06 03:40:11;;;;;;;11.07;10.57;;;;;;;;;;5403364;26;20010;-71
2024/05/06 03:42:37;;;;;;;11.25;10.75;;;;;;;;;;5406033;26;20162;-68
2024/05/06 03:45:02;;;;;;;11.25;10.75;;;;;;;;;;5409941;26;19991;-70
2024/05/06 03:47:28;;;;;;;11.50;11.00;;;;;;;;;;5389350;26;19992;-71
2024/05/06 03:49:53;;;;;;;11.65;11.15;;;;;;;;;;5408310;26;20006;-71
2024/05/06 03:52:19;;;;;;;11.43;10.93;;;;;;;;;;5399219;26;20461;-71
2024/05/06 03:54:44;;;;;;;11.60;11.10;;;;;;;;;;5395316;26;20068;-70
2024/05/06 03:57:10;;;;;;;11.57;11.07;;;;;;;;;;5387171;26;20014;-70
2024/05/06 03:59:35;;;;;;;11.90;11.40;;;;;;;;;;5403458;26;20042;-69
2024/05/06 04:02:00;;;;;;;11.80;11.30;;;;;;;;;;5414857;26;19999;-71
2024/05/06 04:04:26;;;;;;;12.10;11.60;;;;;;;;;;5403289;26;20340;-71
2024/05/06 04:06:51;;;;;;;11.90;11.40;;;;;;;;;;5415976;26;20468;-70
2024/05/06 04:09:17;;;;;;;11.85;11.35;;;;;;;;;;5392029;26;20011;-70
2024/05/06 04:11:42;;;;;;;11.98;11.48;;;;;;;;;;5399699;26;19991;-70
2024/05/06 04:14:07;;;;;;;12.05;11.55;;;;;;;;;;5395933;26;20352;-68
2024/05/06 04:16:33;;;;;;;11.93;11.43;;;;;;;;;;5415974;26;20474;-70
2024/05/06 04:18:58;;;;;;;12.00;11.50;;;;;;;;;;5415147;26;20072;-70
2024/05/06 04:21:24;;;;;;;12.07;11.57;;;;;;;;;;5415263;26;20018;-70
2024/05/06 04:29:18;;;;;;;12.38;11.85;;;;;;;;;;5383586;26;20091;-70
2024/05/06 04:31:43;;;;;;;12.05;11.55;;;;;;;;;;5383266;26;20004;-71
2024/05/06 04:34:09;;;;;;;12.20;11.70;;;;;;;;;;5383605;26;19996;-71
2024/05/06 04:36:34;;;;;;;12.30;11.80;;;;;;;;;;5386948;26;20004;-72
2024/05/06 04:38:59;;;;;;;12.57;11.98;;;;;;;;;;5363444;26;20669;-72
2024/05/06 04:41:25;;;;;;;12.60;12.00;;;;;;;;;;5407149;26;19991;-71
2024/05/06 04:43:50;;;;;;;12.75;12.15;;;;;;;;;;5380466;26;19999;-69
2024/05/06 04:46:16;;;;;;;12.50;11.95;;;;;;;;;;5390975;26;19996;-71
2024/05/06 04:48:41;;;;;;;12.88;12.27;;;;;;;;;;5393073;26;19992;-70
2024/05/06 04:51:07;;;;;;;12.65;12.05;;;;;;;;;;5380406;26;20464;-72
2024/05/06 04:53:32;;;;;;;12.70;12.10;;;;;;;;;;5411199;26;20068;-72
2024/05/06 04:55:57;;;;;;;12.68;12.07;;;;;;;;;;5410366;26;19995;-72
2024/05/06 04:58:23;;;;;;;12.48;11.90;;;;;;;;;;5412625;26;20014;-70
2024/05/06 05:00:48;;;;;;;12.80;12.20;;;;;;;;;;5391088;26;20489;-70
2024/05/06 05:03:14;;;;;;;12.75;12.15;;;;;;;;;;5385694;26;19992;-70
2024/05/06 05:05:39;;;;;;;12.65;12.05;;;;;;;;;;5397626;26;20348;-71
2024/05/06 05:08:05;;;;;;;12.52;11.95;;;;;;;;;;5401708;26;20363;-71
2024/05/06 05:10:30;;;;;;;12.88;12.27;;;;;;;;;;5410265;26;20011;-72
2024/05/06 05:12:56;;;;;;;12.63;12.02;;;;;;;;;;5412821;26;20053;-71
2024/05/06 05:15:21;;;;;;;12.65;12.05;;;;;;;;;;5390747;26;19989;-70
2024/05/06 05:17:48;;;;;;;12.60;12.00;;;;;;;;;;5378765;26;20008;-70
2024/05/06 05:20:13;;;;;;;12.80;12.20;;;;;;;;;;5362195;26;20521;-71
2024/05/06 05:22:38;;;;;;;12.75;12.15;;;;;;;;;;5388072;26;20499;-70
2024/05/06 05:25:04;;;;;;;12.82;12.23;;;;;;;;;;5402798;26;20013;-71
2024/05/06 05:27:29;;;;;;;12.93;12.32;;;;;;;;;;5367745;26;20008;-71
2024/05/06 05:29:55;;;;;;;13.00;12.40;;;;;;;;;;5403121;26;20012;-70
2024/05/06 05:32:20;;;;;;;12.95;12.35;;;;;;;;;;5406970;26;20475;-72
2024/05/06 05:34:45;;;;;;;13.05;12.45;;;;;;;;;;5369426;26;20022;-72
2024/05/06 05:37:11;;;;;;;12.93;12.32;;;;;;;;;;5397893;26;20002;-71
2024/05/06 05:39:36;;;;;;;12.90;12.30;;;;;;;;;;5410078;26;19991;-71
2024/05/06 05:42:02;;;;;;;12.68;12.07;;;;;;;;;;5410245;26;20066;-71
2024/05/06 05:44:27;;;;;;;12.93;12.32;;;;;;;;;;5397611;26;20526;-72
2024/05/06 05:46:52;;;;;;;12.95;12.35;;;;;;;;;;5413610;26;20464;-72
2024/05/06 05:49:18;;;;;;;13.10;12.50;;;;;;;;;;5382008;26;19995;-73
2024/05/06 05:51:44;;;;;;;12.63;12.02;;;;;;;;;;5413838;26;20004;-71
2024/05/06 05:54:09;;;;;;;12.82;12.23;;;;;;;;;;5413555;26;20489;-71
2024/05/06 05:56:34;;;;;;;12.70;12.10;;;;;;;;;;5401100;26;20011;-72
2024/05/06 05:59:00;;;;;;;12.85;12.25;;;;;;;;;;5378416;26;19996;-72
2024/05/06 06:01:26;;;;;;;13.00;12.40;;;;;;;;;;5378728;26;20027;-72
2024/05/06 06:03:53;;;;;;;13.20;12.60;;;;;;;;;;5401402;26;20010;-72
2024/05/06 06:06:18;;;;;;;12.95;12.35;;;;;;;;;;5409041;26;19995;-71
2024/05/06 06:08:44;;;;;;;12.93;12.32;;;;;;;;;;5416490;26;19995;-71
2024/05/06 06:11:09;;;;;;;12.80;12.20;;;;;;;;;;5416518;26;20039;-72
2024/05/06 06:13:35;;;;;;;12.70;12.10;;;;;;;;;;5388286;26;20004;-72
2024/05/06 06:16:00;;;;;;;12.68;12.07;;;;;;;;;;5344038;26;20096;-73
2024/05/06 06:18:26;;;;;;;12.75;12.15;;;;;;;;;;5407549;26;20113;-73
2024/05/06 06:20:51;;;;;;;12.63;12.02;;;;;;;;;;5401215;26;20461;-71
2024/05/06 06:23:17;;;;;;;12.73;12.13;;;;;;;;;;5365022;26;20000;-72
2024/05/06 06:25:42;;;;;;;12.65;12.05;;;;;;;;;;5381607;26;19992;-72
2024/05/06 06:28:07;;;;;;;12.27;11.77;;;;;;;;;;5411919;26;20019;-72
2024/05/06 06:30:33;;;;;;;12.65;12.05;;;;;;;;;;5383337;26;20542;-71
2024/05/06 06:32:59;;;;;;;12.50;11.90;;;;;;;;;;5381620;26;19996;-71
2024/05/06 06:35:24;;;;;;;12.70;12.10;;;;;;;;;;5411234;26;20006;-72
2024/05/06 06:37:53;;;;;;;12.88;12.27;;;;;;;;;;5385083;26;20467;-72
2024/05/06 06:40:18;;;;;;;12.63;12.02;;;;;;;;;;5398544;26;20000;-71
2024/05/06 06:42:44;;;;;;;12.88;12.27;;;;;;;;;;5389892;26;20008;-72
2024/05/06 06:45:09;;;;;;;12.70;12.10;;;;;;;;;;5372129;26;19996;-72
2024/05/06 06:47:34;;;;;;;12.50;11.90;;;;;;;;;;5396557;26;20460;-72
2024/05/06 06:50:00;;;;;;;12.52;11.93;;;;;;;;;;5379490;26;20122;-71
2024/05/06 06:52:25;;;;;;;12.88;12.27;;;;;;;;;;5395539;26;19996;-72
2024/05/06 06:54:50;;;;;;;12.45;11.93;;;;;;;;;;5387203;26;20068;-72
2024/05/06 06:57:16;;;;;;;12.98;12.38;;;;;;;;;;5400435;26;19996;-72
2024/05/06 06:59:41;;;;;;;13.07;12.48;;;;;;;;;;5352699;26;20011;-72
2024/05/06 07:02:07;;;;;;;12.90;12.30;;;;;;;;;;5400260;26;20089;-72
2024/05/06 07:04:32;;;;;;;12.75;12.15;;;;;;;;;;5379376;26;20011;-70
2024/05/06 07:06:58;;;;;;;12.70;12.10;;;;;;;;;;5416702;26;19987;-72
2024/05/06 07:09:23;;;;;;;12.82;12.23;;;;;;;;;;5410456;26;20452;-71
2024/05/06 07:11:49;;;;;;;12.75;12.15;;;;;;;;;;5380230;26;20011;-71
2024/05/06 07:14:14;;;;;;;12.82;12.23;;;;;;;;;;5378466;26;19996;-71
2024/05/06 07:16:40;;;;;;;12.85;12.25;;;;;;;;;;5368819;26;20039;-72
2024/05/06 07:19:05;;;;;;;12.73;12.13;;;;;;;;;;5408596;26;20011;-72
2024/05/06 07:21:32;;;;;;;12.35;11.82;;;;;;;;;;5380312;26;20014;-72
2024/05/06 07:23:58;;;;;;;12.68;12.07;;;;;;;;;;5412593;26;19995;-72
2024/05/06 07:26:23;;;;;;;12.82;12.23;;;;;;;;;;5407200;26;20488;-71
2024/05/06 07:28:53;;;;;;;12.80;12.20;;;;;;;;;;5401339;26;20455;-71
2024/05/06 07:31:19;;;;;;;12.80;12.20;;;;;;;;;;5415072;26;19996;-71
2024/05/06 07:33:44;;;;;;;12.75;12.15;;;;;;;;;;5402150;26;20616;-72
2024/05/06 07:36:10;;;;;;;12.88;12.27;;;;;;;;;;5404034;26;20376;-69
2024/05/06 07:38:36;;;;;;;12.88;12.27;;;;;;;;;;5401496;26;20000;-70
2024/05/06 07:41:05;;;;;;;13.07;12.48;;;;;;;;;;5362580;26;20008;-71
2024/05/06 07:43:30;;;;;;;12.65;12.05;;;;;;;;;;5390347;26;20015;-71
2024/05/06 07:45:57;;;;;;;12.38;11.88;;;;;;;;;;5404580;26;20472;-72
2024/05/06 07:48:23;;;;;;;12.60;12.00;;;;;;;;;;5385902;26;20010;-70
2024/05/06 07:50:49;;;;;;;12.30;11.80;;;;;;;;;;5397900;26;20050;-69
2024/05/06 07:53:14;;;;;;;12.80;12.20;;;;;;;;;;5404170;26;20004;-70
2024/05/06 07:55:40;;;;;;;12.70;12.10;;;;;;;;;;5378293;26;20012;-70
2024/05/06 07:58:05;;;;;;;12.57;11.98;;;;;;;;;;5387615;26;20027;-70
2024/05/06 08:00:35;;;;;;;12.55;11.95;;;;;;;;;;5364443;26;20008;-70
2024/05/06 08:03:04;;;;;;;12.38;11.85;;;;;;;;;;5412100;26;19995;-72
2024/05/06 08:05:30;;;;;;;12.38;11.85;;;;;;;;;;5392711;26;20522;-70
2024/05/06 08:07:56;;;;;;;12.57;11.98;;;;;;;;;;5360265;26;20011;-70
2024/05/06 08:10:22;;;;;;;12.55;11.95;;;;;;;;;;5405143;26;20422;-70
2024/05/06 08:12:47;;;;;;;12.38;11.85;;;;;;;;;;5387290;26;20000;-71
2024/05/06 08:15:12;;;;;;;12.27;11.77;;;;;;;;;;5379500;26;20004;-70
2024/05/06 08:17:38;;;;;;;12.38;11.88;;;;;;;;;;5412660;26;19995;-70
2024/05/06 08:20:04;;;;;;;12.23;11.73;;;;;;;;;;5390781;26;20012;-69
2024/05/06 08:22:29;;;;;;;11.95;11.45;;;;;;;;;;5354461;26;20449;-71
2024/05/06 08:24:55;;;;;;;12.32;11.82;;;;;;;;;;5345366;26;20361;-72
2024/05/06 08:27:20;;;;;;;12.13;11.63;;;;;;;;;;5384651;26;19996;-69
2024/05/06 08:29:46;;;;;;;12.18;11.68;;;;;;;;;;5378108;26;20396;-69
2024/05/06 08:32:14;;;;;;;12.35;11.85;;;;;;;;;;5379479;26;20464;-69
2024/05/06 08:34:40;;;;;;;12.57;11.98;;;;;;;;;;5377578;26;19999;-70
2024/05/06 08:37:05;;;;;;;12.25;11.75;;;;;;;;;;5376013;26;20077;-71
2024/05/06 08:39:31;;;;;;;12.30;11.77;;;;;;;;;;5379037;26;20562;-70
2024/05/06 08:41:56;;;;;;;12.43;11.90;;;;;;;;;;5385747;26;20449;-71
2024/05/06 08:44:26;;;;;;;12.57;11.98;;;;;;;;;;5348246;26;20081;-70
2024/05/06 08:46:51;;;;;;;12.70;12.10;;;;;;;;;;5378953;26;20019;-70
2024/05/06 08:49:17;;;;;;;12.40;11.90;;;;;;;;;;5378717;26;20002;-71
2024/05/06 08:51:43;;;;;;;12.20;11.70;;;;;;;;;;5391371;26;20003;-69
2024/05/06 08:54:09;;;;;;;12.35;11.82;;;;;;;;;;5415302;26;20479;-71
2024/05/06 08:56:36;;;;;;;12.60;12.00;;;;;;;;;;5398782;26;20011;-71
2024/05/06 08:59:03;;;;;;;12.40;11.88;;;;;;;;;;5379220;26;20080;-71
2024/05/06 09:01:28;;;;;;;12.38;11.88;;;;;;;;;;5402231;26;20452;-71
2024/05/06 09:03:54;;;;;;;12.55;11.95;;;;;;;;;;5385147;26;20004;-70
2024/05/06 09:06:20;;;;;;;12.68;12.07;;;;;;;;;;5400173;26;20427;-70
2024/05/06 09:08:45;;;;;;;12.43;11.88;;;;;;;;;;5413917;26;19995;-71
2024/05/06 09:11:17;;;;;;;12.35;11.85;;;;;;;;;;5406826;26;20003;-71
2024/05/06 09:13:45;;;;;;;12.35;11.82;;;;;;;;;;5360968;26;20010;-71
2024/05/06 09:16:10;;;;;;;12.05;11.55;;;;;;;;;;5392958;26;20000;-71
2024/05/06 09:18:35;;;;;;;12.23;11.73;;;;;;;;;;5411586;26;20452;-72
2024/05/06 09:21:10;;;;;;;12.20;11.70;;;;;;;;;;5406277;26;20014;-70
2024/05/06 09:23:42;;;;;;;11.95;11.45;;;;;;;;;;5363044;26;20000;-71
2024/05/06 09:26:08;;;;;;;12.05;11.55;;;;;;;;;;5414043;26;20014;-71
2024/05/06 09:28:33;;;;;;;12.65;12.05;;;;;;;;;;5385858;26;19996;-71
2024/05/06 09:30:59;;;;;;;12.10;11.60;;;;;;;;;;5398756;26;20038;-71
2024/05/06 09:33:26;;;;;;;12.13;11.63;;;;;;;;;;5381641;26;20008;-70
2024/05/06 09:35:51;;;;;;;12.23;11.73;;;;;;;;;;5383371;26;20015;-69
2024/05/06 09:38:17;;;;;;;12.05;11.55;;;;;;;;;;5411269;26;20007;-69
2024/05/06 09:41:03;;;;;;;12.18;11.68;;;;;;;;;;5394788;26;20007;-71
2024/05/06 09:43:31;;;;;;;12.32;11.82;;;;;;;;;;5348325;26;20703;-69
2024/05/06 09:45:57;;;;;;;12.25;11.75;;;;;;;;;;5414267;26;20002;-72
2024/05/06 09:48:23;;;;;;;12.50;11.90;;;;;;;;;;5351044;26;20000;-71
2024/05/06 09:50:49;;;;;;;12.13;11.63;;;;;;;;;;5385324;26;20000;-72
2024/05/06 09:53:17;;;;;;;12.13;11.63;;;;;;;;;;5413429;26;20533;-72
2024/05/06 09:55:42;;;;;;;11.90;11.40;;;;;;;;;;5390392;26;20040;-72
2024/05/06 09:58:08;;;;;;;12.30;11.80;;;;;;;;;;5358965;26;20117;-71
2024/05/06 10:00:34;;;;;;;12.13;11.63;;;;;;;;;;5412066;26;20011;-71
2024/05/06 10:02:59;;;;;;;12.15;11.65;;;;;;;;;;5391081;26;19995;-71
2024/05/06 10:05:25;;;;;;;12.20;11.70;;;;;;;;;;5398931;26;20003;-71
2024/05/06 10:07:50;;;;;;;12.00;11.50;;;;;;;;;;5359904;26;19996;-71
2024/05/06 10:10:16;;;;;;;12.07;11.57;;;;;;;;;;5362618;26;20442;-71
2024/05/06 10:12:43;;;;;;;12.13;11.63;;;;;;;;;;5384116;26;20094;-71
2024/05/06 10:15:08;;;;;;;11.98;11.48;;;;;;;;;;5375456;26;20080;-71
2024/05/06 10:17:44;;;;;;;11.95;11.45;;;;;;;;;;5393113;26;20465;-71
2024/05/06 10:20:17;;;;;;;12.15;11.65;;;;;;;;;;5393711;26;20000;-71
2024/05/06 10:22:42;;;;;;;12.23;11.73;;;;;;;;;;5375952;26;20004;-71
2024/05/06 10:25:17;;;;;;;11.75;11.25;;;;;;;;;;5403867;26;20071;-71
2024/05/06 10:27:43;;;;;;;11.88;11.38;;;;;;;;;;5405868;26;20015;-71
2024/05/06 10:30:08;;;;;;;11.65;11.15;;;;;;;;;;5353402;26;20004;-71
2024/05/06 10:32:34;;;;;;;12.02;11.52;;;;;;;;;;5362409;26;20525;-71
2024/05/06 10:35:03;;;;;;;12.00;11.50;;;;;;;;;;5349992;26;20370;-71
2024/05/06 10:37:34;;;;;;;12.30;11.80;;;;;;;;;;5404655;26;20000;-71
2024/05/06 10:40:03;;;;;;;11.88;11.38;;;;;;;;;;5412476;26;20000;-70
2024/05/06 10:42:28;;;;;;;11.93;11.43;;;;;;;;;;5358509;26;20014;-70
2024/05/06 10:44:54;;;;;;;11.90;11.40;;;;;;;;;;5389660;26;20336;-71
2024/05/06 10:47:19;;;;;;;11.68;11.18;;;;;;;;;;5375892;26;20015;-71
2024/05/06 10:49:49;;;;;;;12.20;11.70;;;;;;;;;;5394919;26;20457;-71
2024/05/06 10:52:15;;;;;;;11.93;11.43;;;;;;;;;;5382798;26;20010;-71
2024/05/06 10:54:40;;;;;;;12.30;11.80;;;;;;;;;;5384536;26;20004;-71
2024/05/06 10:57:08;;;;;;;12.10;11.60;;;;;;;;;;5403043;26;20237;-71
2024/05/06 10:59:34;;;;;;;12.05;11.55;;;;;;;;;;5374021;26;19992;-71
2024/05/06 11:02:00;;;;;;;12.05;11.55;;;;;;;;;;5342268;26;20018;-71
2024/05/06 11:04:26;;;;;;;11.95;11.45;;;;;;;;;;5340939;26;20453;-70
2024/05/06 11:06:51;;;;;;;11.80;11.30;;;;;;;;;;5374860;26;20000;-70
2024/05/06 11:09:17;;;;;;;12.07;11.57;;;;;;;;;;5329926;26;20045;-70
2024/05/06 11:11:42;;;;;;;12.05;11.55;;;;;;;;;;5384620;26;20062;-71
2024/05/06 11:14:08;;;;;;;12.02;11.52;;;;;;;;;;5373923;26;20520;-72
2024/05/06 11:16:33;;;;;;;11.93;11.43;;;;;;;;;;5377763;26;20566;-73
2024/05/06 11:19:00;;;;;;;11.90;11.40;;;;;;;;;;5304829;26;20036;-70
2024/05/06 11:21:30;;;;;;;11.88;11.38;;;;;;;;;;5374351;26;20083;-72
2024/05/06 11:23:55;;;;;;;11.80;11.30;;;;;;;;;;5383734;26;19992;-72
2024/05/06 11:26:20;;;;;;;12.05;11.55;;;;;;;;;;5359267;26;20366;-71
2024/05/06 11:28:46;;;;;;;12.25;11.75;;;;;;;;;;5343569;26;20000;-71
2024/05/06 11:31:11;;;;;;;12.13;11.63;;;;;;;;;;5369540;26;20007;-70
2024/05/06 11:33:37;;;;;;;12.15;11.65;;;;;;;;;;5391339;26;20092;-70
2024/05/06 11:36:02;;;;;;;12.02;11.52;;;;;;;;;;5382054;26;19992;-72
2024/05/06 11:38:28;;;;;;;12.18;11.68;;;;;;;;;;5353474;26;20011;-71
2024/05/06 11:40:53;;;;;;;12.07;11.57;;;;;;;;;;5370131;26;20604;-71
2024/05/06 11:43:19;;;;;;;12.07;11.57;;;;;;;;;;5374171;26;20483;-71
2024/05/06 11:45:44;;;;;;;11.80;11.30;;;;;;;;;;5344281;26;20024;-71
2024/05/06 11:48:09;;;;;;;11.77;11.27;;;;;;;;;;5359340;26;20009;-70
2024/05/06 11:50:35;;;;;;;11.80;11.30;;;;;;;;;;5404540;26;20073;-70
2024/05/06 11:53:00;;;;;;;11.57;11.07;;;;;;;;;;5377483;26;20028;-70
2024/05/06 11:55:25;;;;;;;12.10;11.60;;;;;;;;;;5378665;26;19997;-70
2024/05/06 11:57:51;;;;;;;11.98;11.48;;;;;;;;;;5385905;26;20014;-71
2024/05/06 12:00:17;;;;;;;12.05;11.55;;;;;;;;;;5352148;26;20012;-70
2024/05/06 12:02:42;;;;;;;11.88;11.38;;;;;;;;;;5381762;26;20000;-71
2024/05/06 12:05:08;;;;;;;11.90;11.40;;;;;;;;;;5377451;26;20046;-69
2024/05/06 12:07:34;;;;;;;12.10;11.60;;;;;;;;;;5389267;26;20000;-70
2024/05/06 12:09:59;;;;;;;11.77;11.27;;;;;;;;;;5345781;26;19997;-70
2024/05/06 12:12:25;;;;;;;11.95;11.45;;;;;;;;;;5393989;26;20426;-70
2024/05/06 12:14:50;;;;;;;12.05;11.55;;;;;;;;;;5385681;26;20051;-70
2024/05/06 12:17:16;;;;;;;12.00;11.50;;;;;;;;;;5374508;26;20543;-70
2024/05/06 12:19:41;;;;;;;11.98;11.48;;;;;;;;;;5366645;26;20000;-70
2024/05/06 12:22:07;;;;;;;12.05;11.55;;;;;;;;;;5356476;26;19997;-70
2024/05/06 12:24:32;;;;;;;11.98;11.48;;;;;;;;;;5381173;26;19996;-70
2024/05/06 12:26:58;;;;;;;11.98;11.48;;;;;;;;;;5385628;26;20670;-70
2024/05/06 12:29:23;;;;;;;12.10;11.60;;;;;;;;;;5366388;26;20000;-70
2024/05/06 12:31:48;;;;;;;12.50;11.90;;;;;;;;;;5384160;26;20073;-70
2024/05/06 12:34:14;;;;;;;11.85;11.35;;;;;;;;;;5344973;26;20000;-70
2024/05/06 12:36:40;;;;;;;11.75;11.25;;;;;;;;;;5374986;26;20733;-68
2024/05/06 12:39:05;;;;;;;11.80;11.30;;;;;;;;;;5375039;26;20006;-71
2024/05/06 12:41:30;;;;;;;11.88;11.38;;;;;;;;;;5380908;26;20086;-70
2024/05/06 12:43:56;;;;;;;11.95;11.45;;;;;;;;;;5375538;26;20006;-70
2024/05/06 12:46:22;;;;;;;12.10;11.60;;;;;;;;;;5376545;26;19992;-69
2024/05/06 12:48:48;;;;;;;12.10;11.60;;;;;;;;;;5377394;26;20425;-71
2024/05/06 12:51:13;;;;;;;11.93;11.43;;;;;;;;;;5346342;26;20001;-70
2024/05/06 12:53:39;;;;;;;11.82;11.32;;;;;;;;;;5384387;26;20011;-70
2024/05/06 12:56:04;;;;;;;11.98;11.48;;;;;;;;;;5353192;26;20004;-70
2024/05/06 12:58:30;;;;;;;12.10;11.60;;;;;;;;;;5367507;26;20077;-70
2024/05/06 13:00:55;;;;;;;12.48;11.90;;;;;;;;;;5368115;26;20466;-70
2024/05/06 13:03:24;;;;;;;11.93;11.43;;;;;;;;;;5372392;26;20016;-69
2024/05/06 13:05:52;;;;;;;11.68;11.18;;;;;;;;;;5377974;26;20004;-71
2024/05/06 13:08:18;;;;;;;12.10;11.60;;;;;;;;;;5382439;26;19995;-69
2024/05/06 13:10:43;;;;;;;12.00;11.50;;;;;;;;;;5378286;26;20010;-70
2024/05/06 13:13:09;;;;;;;11.85;11.35;;;;;;;;;;5379717;26;20023;-70
2024/05/06 13:15:34;;;;;;;11.93;11.43;;;;;;;;;;5375491;26;20323;-70
2024/05/06 13:17:59;;;;;;;12.10;11.60;;;;;;;;;;5378855;26;20005;-70
2024/05/06 13:20:26;;;;;;;12.52;11.93;;;;;;;;;;5372522;26;20322;-70
2024/05/06 13:22:52;;;;;;;12.30;11.80;;;;;;;;;;5393287;26;20015;-70
2024/05/06 13:25:17;;;;;;;12.13;11.63;;;;;;;;;;5376676;26;20000;-70
2024/05/06 13:27:43;;;;;;;11.95;11.45;;;;;;;;;;5362586;26;20015;-70
2024/05/06 13:30:09;;;;;;;11.82;11.32;;;;;;;;;;5385352;26;20012;-70
2024/05/06 13:32:34;;;;;;;11.93;11.43;;;;;;;;;;5367947;26;20008;-71
2024/05/06 13:35:00;;;;;;;11.93;11.43;;;;;;;;;;5378747;26;20088;-70
2024/05/06 13:37:26;;;;;;;12.02;11.52;;;;;;;;;;5384293;26;20456;-71
2024/05/06 13:39:51;;;;;;;11.90;11.40;;;;;;;;;;5381261;26;19992;-70
2024/05/06 13:42:17;;;;;;;11.80;11.30;;;;;;;;;;5358784;26;20319;-70
2024/05/06 13:44:42;;;;;;;12.05;11.55;;;;;;;;;;5373744;26;20064;-70
2024/05/06 13:47:08;;;;;;;12.13;11.63;;;;;;;;;;5363983;26;19997;-70
2024/05/06 13:49:33;;;;;;;11.90;11.40;;;;;;;;;;5374422;26;19992;-70
2024/05/06 13:51:58;;;;;;;12.00;11.50;;;;;;;;;;5359425;26;20040;-69
2024/05/06 13:54:24;;;;;;;12.07;11.57;;;;;;;;;;5372210;26;20000;-69
2024/05/06 13:56:50;;;;;;;11.93;11.43;;;;;;;;;;5378468;26;20032;-69
2024/05/06 13:59:16;;;;;;;11.95;11.45;;;;;;;;;;5363823;26;20437;-69
2024/05/06 14:01:41;;;;;;;11.93;11.43;;;;;;;;;;5372881;26;20081;-68
2024/05/06 14:04:07;;;;;;;11.82;11.32;;;;;;;;;;5371710;26;20074;-69
2024/05/06 14:06:32;;;;;;;11.90;11.40;;;;;;;;;;5399761;26;20035;-71
2024/05/06 14:08:59;;;;;;;11.65;11.15;;;;;;;;;;5376548;26;20697;-71
2024/05/06 14:11:24;;;;;;;11.60;11.10;;;;;;;;;;5372956;26;20008;-70
2024/05/06 14:13:49;;;;;;;11.90;11.40;;;;;;;;;;5390383;26;20476;-70